createdAt,value
2018-07-14T00:02:15.528Z,2.4
2018-07-14T00:05:15.718Z,2.5
2018-07-14T00:08:15.580Z,2.3
2018-07-14T00:11:15.318Z,2.3
2018-07-14T00:14:15.600Z,2.4
2018-07-14T00:17:15.694Z,2.4
2018-07-14T00:20:15.456Z,2.4
2018-07-14T00:23:15.372Z,2.3
2018-07-14T00:26:15.427Z,2.2
2018-07-14T00:29:15.460Z,2.2
2018-07-14T00:32:15.672Z,2.3
2018-07-14T00:35:15.343Z,2.4
2018-07-14T00:38:15.533Z,2.7
2018-07-14T00:41:15.502Z,2.5
2018-07-14T00:44:15.334Z,2.4
2018-07-14T00:47:15.360Z,2.4
2018-07-14T00:50:15.387Z,2.4
2018-07-14T00:53:15.360Z,2.2
2018-07-14T00:56:15.448Z,2.3
2018-07-14T00:59:15.517Z,2.3
2018-07-14T01:02:15.479Z,2.3
2018-07-14T01:05:15.601Z,2.2
2018-07-14T01:08:15.421Z,2.4
2018-07-14T01:11:15.353Z,2.4
2018-07-14T01:14:15.441Z,2.4
2018-07-14T01:17:15.537Z,2.4
2018-07-14T01:20:15.525Z,2.3
2018-07-14T01:23:46.734Z,2.5
2018-07-14T01:26:15.326Z,2.4
2018-07-14T01:29:15.829Z,2.3
2018-07-14T01:32:15.488Z,2.4
2018-07-14T01:35:15.291Z,2.5
2018-07-14T01:38:15.303Z,2.4
2018-07-14T01:41:15.406Z,2.4
2018-07-14T01:44:15.688Z,2.3
2018-07-14T01:47:15.426Z,2.3
2018-07-14T01:50:15.563Z,2.2
2018-07-14T01:53:15.528Z,2.2
2018-07-14T01:56:15.407Z,2.3
2018-07-14T01:59:15.366Z,2.3
2018-07-14T02:02:15.435Z,2.3
2018-07-14T02:05:15.463Z,2.4
2018-07-14T02:08:15.473Z,2.4
2018-07-14T02:11:15.211Z,2.4
2018-07-14T02:14:15.488Z,2.4
2018-07-14T02:17:15.608Z,2.4
2018-07-14T02:20:15.270Z,2.3
2018-07-14T02:23:15.431Z,2.4
2018-07-14T02:26:15.466Z,2.4
2018-07-14T02:29:15.573Z,2.3
2018-07-14T02:32:15.440Z,2.3
2018-07-14T02:35:15.483Z,2.4
2018-07-14T02:38:15.562Z,2.3
2018-07-14T02:41:15.804Z,2.3
2018-07-14T02:44:15.367Z,2.3
2018-07-14T02:47:15.312Z,2.3
2018-07-14T02:50:15.806Z,2.3
2018-07-14T02:53:15.339Z,2.3
2018-07-14T02:56:15.573Z,2.4
2018-07-14T02:59:15.412Z,2.4
2018-07-14T03:02:15.398Z,2.3
2018-07-14T03:05:15.574Z,2.3
2018-07-14T03:08:15.425Z,2.4
2018-07-14T03:11:15.461Z,2.4
2018-07-14T03:14:15.433Z,2.4
2018-07-14T03:17:15.460Z,2.4
2018-07-14T03:20:15.381Z,2.4
2018-07-14T03:23:15.376Z,2.4
2018-07-14T03:26:15.895Z,2.4
2018-07-14T03:29:15.200Z,2.4
2018-07-14T03:32:15.439Z,2.3
2018-07-14T03:35:15.375Z,2.4
2018-07-14T03:38:15.290Z,2.3
2018-07-14T03:41:15.309Z,2.4
2018-07-14T03:44:15.582Z,2.4
2018-07-14T03:47:15.254Z,2.4
2018-07-14T03:50:15.391Z,2.4
2018-07-14T03:53:15.521Z,2.3
2018-07-14T03:56:15.315Z,2.4
2018-07-14T03:59:15.478Z,2.4
2018-07-14T04:02:15.535Z,2.5
2018-07-14T04:05:15.440Z,2.4
2018-07-14T04:08:15.486Z,2.5
2018-07-14T04:11:15.456Z,2.3
2018-07-14T04:14:15.488Z,2.4
2018-07-14T04:17:15.412Z,2.4
2018-07-14T04:20:15.535Z,2.4
2018-07-14T04:23:15.468Z,2.4
2018-07-14T04:26:15.617Z,2.4
2018-07-14T04:29:15.354Z,2.5
2018-07-14T04:32:15.478Z,2.4
2018-07-14T04:35:15.540Z,2.5
2018-07-14T04:38:15.484Z,2.5
2018-07-14T04:41:15.409Z,2.5
2018-07-14T04:44:15.503Z,2.6
2018-07-14T04:47:15.394Z,2.5
2018-07-14T04:50:15.432Z,2.5
2018-07-14T04:53:16.478Z,2.5
2018-07-14T04:56:15.442Z,2.6
2018-07-14T04:59:15.418Z,4.6
2018-07-14T05:02:15.320Z,6.4
2018-07-14T05:05:15.483Z,7
2018-07-14T05:08:15.428Z,7.4
2018-07-14T05:11:15.476Z,8.3
2018-07-14T05:14:15.310Z,8.2
2018-07-14T05:17:15.354Z,8.6
2018-07-14T05:20:15.316Z,9.5
2018-07-14T05:23:15.402Z,9
2018-07-14T05:26:15.570Z,9.3
2018-07-14T05:29:16.853Z,9.7
2018-07-14T05:32:15.520Z,9
2018-07-14T05:35:15.591Z,8.9
2018-07-14T05:38:15.502Z,8.5
2018-07-14T05:41:15.347Z,8.5
2018-07-14T05:44:15.638Z,9
2018-07-14T05:47:15.529Z,9.5
2018-07-14T05:50:15.479Z,8.9
2018-07-14T05:53:15.481Z,9
2018-07-14T05:56:15.261Z,9.3
2018-07-14T05:59:15.336Z,9.9
2018-07-14T06:02:15.417Z,10.8
2018-07-14T06:05:15.431Z,11
2018-07-14T06:08:15.575Z,12.1
2018-07-14T06:11:15.372Z,11.3
2018-07-14T06:14:16.200Z,10.8
2018-07-14T06:17:15.847Z,10.1
2018-07-14T06:20:15.459Z,9.9
2018-07-14T06:23:15.504Z,10.9
2018-07-14T06:26:15.427Z,10.6
2018-07-14T06:29:15.441Z,9.9
2018-07-14T06:32:15.313Z,9.3
2018-07-14T06:35:15.299Z,9.1
2018-07-14T06:38:16.159Z,9
2018-07-14T06:41:15.790Z,8.7
2018-07-14T06:44:15.396Z,8.6
2018-07-14T06:47:15.672Z,8.7
2018-07-14T06:50:15.613Z,9.3
2018-07-14T06:53:15.507Z,9.3
2018-07-14T06:56:15.738Z,8.7
2018-07-14T06:59:15.284Z,9.4
2018-07-14T07:02:15.290Z,9.6
2018-07-14T07:05:15.310Z,9.1
2018-07-14T07:08:15.238Z,10.3
2018-07-14T07:11:15.281Z,9.6
2018-07-14T07:14:15.437Z,8.8
2018-07-14T07:17:15.422Z,8.2
2018-07-14T07:20:15.270Z,7.9
2018-07-14T07:23:15.392Z,7.8
2018-07-14T07:26:15.433Z,7.9
2018-07-14T07:29:15.290Z,7.7
2018-07-14T07:32:15.549Z,8
2018-07-14T07:35:15.445Z,7.9
2018-07-14T07:38:15.416Z,7.8
2018-07-14T07:41:15.513Z,7.6
2018-07-14T07:44:15.331Z,7.8
2018-07-14T07:47:15.436Z,7.5
2018-07-14T07:50:15.293Z,7.2
2018-07-14T07:53:15.421Z,8.1
2018-07-14T07:56:15.307Z,7.7
2018-07-14T07:59:15.289Z,7.5
2018-07-14T08:02:15.427Z,7
2018-07-14T08:05:15.288Z,7.7
2018-07-14T08:08:15.141Z,7.7
2018-07-14T08:11:15.282Z,7.4
2018-07-14T08:14:15.567Z,7.5
2018-07-14T08:17:15.326Z,8.6
2018-07-14T08:20:15.501Z,10.1
2018-07-14T08:23:15.472Z,10.7
2018-07-14T08:26:15.274Z,10.2
2018-07-14T08:29:15.376Z,9.6
2018-07-14T08:32:15.837Z,9.2
2018-07-14T08:35:15.360Z,9
2018-07-14T08:38:15.369Z,8.4
2018-07-14T08:41:15.330Z,8.2
2018-07-14T08:44:15.348Z,8.5
2018-07-14T08:47:15.326Z,8
2018-07-14T08:50:15.411Z,7.3
2018-07-14T08:53:15.337Z,7.2
2018-07-14T08:56:15.332Z,7.2
2018-07-14T08:59:15.477Z,6.9
2018-07-14T09:02:15.188Z,7.5
2018-07-14T09:05:15.455Z,7.3
2018-07-14T09:08:15.590Z,6.9
2018-07-14T09:11:15.345Z,7.7
2018-07-14T09:14:15.369Z,8.1
2018-07-14T09:17:15.377Z,8.7
2018-07-14T09:20:15.358Z,7.8
2018-07-14T09:23:15.236Z,9.1
2018-07-14T09:26:15.761Z,9.2
2018-07-14T09:29:15.181Z,10.5
2018-07-14T09:32:15.672Z,9
2018-07-14T09:35:15.514Z,7.8
2018-07-14T09:38:25.512Z,7.1
2018-07-14T09:41:15.419Z,7.8
2018-07-14T09:44:15.374Z,7.7
2018-07-14T09:47:15.222Z,7.9
2018-07-14T09:50:15.403Z,8.7
2018-07-14T09:53:15.253Z,8.6
2018-07-14T09:56:15.695Z,8.6
2018-07-14T09:59:15.304Z,7.8
2018-07-14T10:02:15.167Z,7.1
2018-07-14T10:05:15.439Z,8
2018-07-14T10:08:15.186Z,8.4
2018-07-14T10:11:15.248Z,7.5
2018-07-14T10:14:15.215Z,7.2
2018-07-14T10:17:15.885Z,7.3
2018-07-14T10:20:15.356Z,7.3
2018-07-14T10:23:15.497Z,7.3
2018-07-14T10:26:15.251Z,7.7
2018-07-14T10:29:15.225Z,7.4
2018-07-14T10:32:15.272Z,7.5
2018-07-14T10:35:15.426Z,8.5
2018-07-14T10:38:15.273Z,8.7
2018-07-14T10:49:21.705Z,5.6
2018-07-14T10:52:21.666Z,7.1
2018-07-14T10:55:21.763Z,7.7
2018-07-14T10:58:21.761Z,7.4
2018-07-14T11:01:21.759Z,6.6
2018-07-14T11:04:22.337Z,6.7
2018-07-14T11:07:21.741Z,7.7
2018-07-14T11:12:44.139Z,6.3
2018-07-14T11:15:44.148Z,6.9
2018-07-14T11:18:44.220Z,6.2
2018-07-14T11:21:44.106Z,6.5
2018-07-14T11:24:44.334Z,7.2
2018-07-14T11:27:44.252Z,6.8
2018-07-14T11:30:44.120Z,6.4
2018-07-14T11:33:44.211Z,6.4
2018-07-14T11:36:44.371Z,6.7
2018-07-14T11:39:44.334Z,6.6
2018-07-14T11:42:44.333Z,6
2018-07-14T11:45:44.230Z,5.7
2018-07-14T11:48:44.318Z,5.4
2018-07-14T11:51:44.263Z,5.1
2018-07-14T11:54:44.537Z,5.2
2018-07-14T11:57:44.346Z,5.4
2018-07-14T12:00:44.196Z,5.4
2018-07-14T12:03:44.444Z,6
2018-07-14T12:06:44.333Z,5.5
2018-07-14T12:09:44.331Z,5.1
2018-07-14T12:12:44.256Z,5.1
2018-07-14T12:15:44.408Z,5
2018-07-14T12:18:44.144Z,5
2018-07-14T12:21:44.308Z,5.2
2018-07-14T12:24:44.421Z,5.6
2018-07-14T12:27:44.100Z,6.4
2018-07-14T12:30:44.668Z,6
2018-07-14T12:33:44.328Z,6.4
2018-07-14T12:36:45.899Z,7.3
2018-07-14T12:39:46.443Z,7.4
2018-07-14T12:42:44.205Z,6.6
2018-07-14T12:45:44.245Z,6.2
2018-07-14T12:48:44.456Z,7.4
2018-07-14T12:51:44.194Z,7.8
2018-07-14T12:54:44.340Z,7.3
2018-07-14T12:57:44.352Z,6.9
2018-07-14T13:00:44.412Z,6.3
2018-07-14T13:03:44.345Z,6.5
2018-07-14T13:06:44.236Z,6.4
2018-07-14T13:09:44.308Z,6.1
2018-07-14T13:12:44.376Z,6
2018-07-14T13:15:44.404Z,6.1
2018-07-14T13:18:44.250Z,5.9
2018-07-14T13:21:44.337Z,5.4
2018-07-14T13:24:44.284Z,5.2
2018-07-14T13:27:44.303Z,5.6
2018-07-14T13:30:44.198Z,5.8
2018-07-14T13:33:44.298Z,5.1
2018-07-14T13:36:44.188Z,5
2018-07-14T13:39:44.332Z,5.3
2018-07-14T13:42:44.201Z,5
2018-07-14T13:45:44.408Z,5.4
2018-07-14T13:48:44.322Z,5.1
2018-07-14T13:51:44.276Z,4.8
2018-07-14T13:54:44.270Z,4.9
2018-07-14T13:57:44.358Z,4.7
2018-07-14T14:00:44.368Z,4.9
2018-07-14T14:03:44.305Z,4.6
2018-07-14T14:06:44.225Z,4.5
2018-07-14T14:09:44.276Z,5
2018-07-14T14:12:44.322Z,4.7
2018-07-14T14:15:44.244Z,4.5
2018-07-14T14:18:44.261Z,4.4
2018-07-14T14:21:44.214Z,4.4
2018-07-14T14:24:44.343Z,4.5
2018-07-14T14:27:44.292Z,4.5
2018-07-14T14:30:44.349Z,4.4
2018-07-14T14:33:44.152Z,4.3
2018-07-14T14:36:44.344Z,4.6
2018-07-14T14:39:44.290Z,4.4
2018-07-14T14:42:44.348Z,4.3
2018-07-14T14:45:44.388Z,4.3
2018-07-14T14:48:44.138Z,4.4
2018-07-14T14:51:44.360Z,4.2
2018-07-14T14:54:44.412Z,4.2
2018-07-14T14:57:44.290Z,9.8
2018-07-14T15:00:44.212Z,9.4
2018-07-14T15:03:44.371Z,9.9
2018-07-14T15:06:44.189Z,9.2
2018-07-14T15:09:44.255Z,8.4
2018-07-14T15:12:44.550Z,8.2
2018-07-14T15:15:44.484Z,6.3
2018-07-14T15:18:44.416Z,6.1
2018-07-14T15:21:44.405Z,8
2018-07-14T15:24:44.282Z,9.3
2018-07-14T15:27:44.337Z,8
2018-07-14T15:30:44.260Z,7.1
2018-07-14T15:33:44.514Z,6
2018-07-14T15:36:44.418Z,6.7
2018-07-14T15:39:44.327Z,6.6
2018-07-14T15:42:44.255Z,7.3
2018-07-14T15:45:44.229Z,7.2
2018-07-14T15:48:44.477Z,6.3
2018-07-14T15:51:44.341Z,6.9
2018-07-14T15:54:44.284Z,6.3
2018-07-14T15:57:44.275Z,7.1
2018-07-14T16:00:44.251Z,5.8
2018-07-14T16:03:44.373Z,5.3
2018-07-14T16:06:44.344Z,6.1
2018-07-14T16:09:44.387Z,6.4
2018-07-14T16:12:44.436Z,6.6
2018-07-14T16:15:44.328Z,6.9
2018-07-14T16:18:44.288Z,11.1
2018-07-14T16:21:44.163Z,10.5
2018-07-14T16:24:44.555Z,10
2018-07-14T16:27:44.361Z,14.5
2018-07-14T16:30:44.274Z,12.7
2018-07-14T16:33:44.191Z,11.7
2018-07-14T16:36:44.599Z,8.9
2018-07-14T16:39:44.363Z,9.7
2018-07-14T16:42:44.299Z,9.1
2018-07-14T16:45:44.348Z,8.9
2018-07-14T16:48:44.364Z,8.3
2018-07-14T16:51:44.465Z,7.7
2018-07-14T16:54:44.240Z,7.3
2018-07-14T16:57:45.113Z,6.4
2018-07-14T17:00:44.317Z,6.7
2018-07-14T17:03:44.276Z,6.9
2018-07-14T17:06:44.232Z,6.9
2018-07-14T17:09:44.431Z,6
2018-07-14T17:12:44.187Z,6.3
2018-07-14T17:15:44.413Z,6.8
2018-07-14T17:18:44.328Z,7.5
2018-07-14T17:21:44.340Z,7.2
2018-07-14T17:24:44.418Z,6.7
2018-07-14T17:27:44.264Z,5.8
2018-07-14T17:30:44.224Z,5.6
2018-07-14T17:33:44.296Z,6
2018-07-14T17:36:44.468Z,5.6
2018-07-14T17:39:44.175Z,6.1
2018-07-14T17:42:44.288Z,6.1
2018-07-14T17:45:44.176Z,6.5
2018-07-14T17:48:44.342Z,5.6
2018-07-14T17:51:45.207Z,5.4
2018-07-14T17:54:44.349Z,5.5
2018-07-14T17:57:44.277Z,6.4
2018-07-14T18:00:44.184Z,5.9
2018-07-14T18:03:44.307Z,6.3
2018-07-14T18:06:44.257Z,6.3
2018-07-14T18:09:44.166Z,5.8
2018-07-14T18:12:44.301Z,5.8
2018-07-14T18:15:44.239Z,5.2
2018-07-14T18:18:44.414Z,4.7
2018-07-14T18:21:44.234Z,5
2018-07-14T18:24:44.254Z,4.9
2018-07-14T18:27:44.192Z,4.8
2018-07-14T18:30:44.301Z,4.7
2018-07-14T18:33:44.333Z,4.5
2018-07-14T18:36:44.234Z,4.6
2018-07-14T18:39:44.284Z,4.7
2018-07-14T18:42:44.810Z,4.3
2018-07-14T18:45:44.323Z,5.2
2018-07-14T18:48:44.252Z,4.8
2018-07-14T18:51:44.320Z,4.3
2018-07-14T18:54:44.054Z,4.3
2018-07-14T18:57:44.309Z,4.2
2018-07-14T19:00:44.328Z,4.5
2018-07-14T19:03:44.235Z,4
2018-07-14T19:06:44.100Z,4.5
2018-07-14T19:09:44.307Z,4.1
2018-07-14T19:12:44.124Z,3.8
2018-07-14T19:15:44.525Z,3.9
2018-07-14T19:18:44.174Z,4.1
2018-07-14T19:21:44.347Z,4.4
2018-07-14T19:24:44.228Z,3.8
2018-07-14T19:27:44.375Z,4.3
2018-07-14T19:30:44.345Z,4.5
2018-07-14T19:33:44.271Z,4.5
2018-07-14T19:36:45.065Z,4.6
2018-07-14T19:39:44.291Z,4.4
2018-07-14T19:42:44.858Z,4.1
2018-07-14T19:45:44.253Z,4
2018-07-14T19:48:44.181Z,4.2
2018-07-14T19:51:44.291Z,4.6
2018-07-14T19:54:44.271Z,4.9
2018-07-14T19:57:44.245Z,4.4
2018-07-14T20:00:44.152Z,4.4
2018-07-14T20:03:44.311Z,4.8
2018-07-14T20:06:44.781Z,5
2018-07-14T20:09:44.174Z,5.6
2018-07-14T20:12:44.202Z,5.9
2018-07-14T20:15:44.236Z,4.9
2018-07-14T20:18:44.261Z,4.1
2018-07-14T20:21:44.288Z,4
2018-07-14T20:24:44.235Z,3.7
2018-07-14T20:27:44.211Z,4.3
2018-07-14T20:30:44.283Z,4.4
2018-07-14T20:33:44.213Z,3.9
2018-07-14T20:36:44.119Z,3.7
2018-07-14T20:39:44.354Z,3.7
2018-07-14T20:42:44.112Z,4.2
2018-07-14T20:45:44.286Z,4.5
2018-07-14T20:48:44.426Z,4.5
2018-07-14T20:51:44.158Z,4.6
2018-07-14T20:54:44.169Z,4
2018-07-14T20:57:44.278Z,4
2018-07-14T21:00:44.319Z,3.7
2018-07-14T21:03:45.084Z,3.8
2018-07-14T21:06:44.323Z,3.7
2018-07-14T21:09:44.097Z,4.5
2018-07-14T21:12:44.940Z,3.9
2018-07-14T21:15:44.234Z,3.9
2018-07-14T21:18:44.135Z,3.7
2018-07-14T21:21:44.206Z,3.5
2018-07-14T21:24:44.284Z,3.5
2018-07-14T21:27:44.121Z,3.4
2018-07-14T21:30:44.252Z,3.8
2018-07-14T21:33:44.108Z,4.1
2018-07-14T21:36:44.451Z,4.1
2018-07-14T21:39:44.271Z,3.7
2018-07-14T21:42:44.197Z,3.7
2018-07-14T21:45:44.216Z,3.5
2018-07-14T21:48:44.064Z,3.2
2018-07-14T21:51:44.122Z,3.3
2018-07-14T21:54:44.146Z,3.4
2018-07-14T21:57:44.170Z,3.7
2018-07-14T22:00:44.148Z,3.6
2018-07-14T22:03:44.327Z,3.5
2018-07-14T22:07:04.675Z,3.5
2018-07-14T22:09:44.161Z,3.3
2018-07-14T22:12:44.290Z,3.5
2018-07-14T22:15:44.135Z,3.6
2018-07-14T22:18:44.134Z,3.3
2018-07-14T22:21:44.182Z,3.3
2018-07-14T22:24:44.199Z,3.1
2018-07-14T22:27:44.577Z,3.1
2018-07-14T22:30:44.032Z,3.3
2018-07-14T22:33:43.982Z,3.3
2018-07-14T22:36:44.151Z,3.4
2018-07-14T22:39:44.187Z,3.3
2018-07-14T22:42:44.123Z,3.4
2018-07-14T22:45:44.072Z,3.4
2018-07-14T22:48:44.140Z,3.3
2018-07-14T22:51:44.213Z,3.3
2018-07-14T22:54:44.387Z,3.2
2018-07-14T22:57:44.112Z,3.2
2018-07-14T23:00:44.376Z,3.2
2018-07-14T23:03:44.123Z,3.2
2018-07-14T23:06:44.105Z,3.1
2018-07-14T23:09:44.167Z,3
2018-07-14T23:12:44.096Z,3
2018-07-14T23:15:44.348Z,3
2018-07-14T23:18:44.291Z,3
2018-07-14T23:21:44.043Z,3.1
2018-07-14T23:24:44.981Z,3
2018-07-14T23:27:44.050Z,3
2018-07-14T23:30:44.115Z,2.9
2018-07-14T23:33:44.098Z,3.1
2018-07-14T23:36:44.286Z,3.3
2018-07-14T23:39:44.117Z,3.3
2018-07-14T23:42:44.192Z,3.2
2018-07-14T23:45:44.177Z,3
2018-07-14T23:48:44.322Z,3
2018-07-14T23:51:44.398Z,3
2018-07-14T23:54:44.279Z,2.8
2018-07-14T23:57:44.430Z,3
